METAR LOCAUX

2021/04/19 16:30 LFST 191630Z AUTO VRB02KT 9999 BKN052 OVC084 10/07 Q1018 TEMPO 4000 -SHRA FEW030CB
2021/04/19 16:20 EDSB 191620Z 22004KT 200V260 CAVOK 10/05 Q1018
2021/04/19 12:00 LFGA 191200Z AUTO 19003KT 150V220 9999 FEW035 OVC043 09/06 Q1019
www.noaa.gov

Ne pas utiliser pour préparer ou effectuer un vol: Utilisez la documentation officielle disponible sur aviation.meteo.fr (Aéroweb)


"Le soleil du matin ne dure pas forcément toute la journée."

Animation satellite IR

Meteociel.fr

"Derrière chaque nuage se cache le ciel bleu."

Radar pluie

Infoclimat.fr

"Si tu veux l’arc-en-ciel, tu dois supporter la pluie."
Dolly Parton

Nébulosité (octas)

Meteociel.fr

"Le soleil est souvent obscurci par les nuages et la raison par les passions."
Démophile

Impacts de foudre

www.meteo60.fr

"Celui que frappe la foudre n'entend pas le tonnerre."

Vigilance météo

vigilance-meteo.fr

"Tout nuage n'enfante pas une tempête."
William Shakespeare

TAF locaux

2021/04/19 12:21 TAF LFST 191100Z 1912/2012 19003KT 9999 BKN035 TEMPO 1912/1919 4000 -SHRA FEW030TCU PROB40 TEMPO 1915/1919 SHRA FEW030CB TEMPO 2002/2010 3000 BR PROB40 TEMPO 2003/2008 0300 FG VV///
2021/04/19 12:27 TAF EDSB 191100Z 1912/2012 22005KT 9999 SCT030 BKN045 TEMPO 1912/1918 4000 SHRA BKN025CB PROB30 TEMPO 1914/1917 23012KT 2500 TSRA BECMG 1916/1918 VRB03KT BECMG 1923/2001 3000 BCFG BECMG 2001/2003 0800 FG TEMPO 2003/2007 0400 FG VV001 BECMG 2007/2009 9999 TEMPO 2007/2009 BKN009
www.noaa.gov

Ne pas utiliser pour préparer ou effectuer un vol: Utilisez la documentation officielle disponible sur aviation.meteo.fr (Aéroweb)


"Les jours où le ciel est gris, le soleil n'a pas disparu à tout jamais."
Arnaud Desjardins

Prévisions 7 jours


Meteoblue.com

"Quand les crapauds chantent, le beau temps s'avance !"